Hosei Maru No.226 — JD3837 — position and weather

sailwx.info

Track history (hours):
 
Tides and Currents Weather Stations Pressure Air Temp Water Temp Dewpoint Dewpoint Depression Visibility Wind Speed Wind Dir Waves Ship Positions

Hosei Maru No.226

Last reported at 2018-Jun-23 08:59 UTC. Time now 2018-Jun-24 01:35 UTC.
Position N 35°09' E 139°44'.

Length 78 m; draft 4.5 m.

Type: Cargo ship. MMSI: 431203000.

Date/timePositionNaut miles runAvg speedWind from/ knotsBaromVisibWave heightAir tempDewpointWater temp
2018-Jun-23 08:59N 35°09' E 139°44'612.2
2018-Jun-23 08:29N 35°15' E 139°46'612.9
2018-Jun-23 08:00N 35°20' E 139°42'3 6.4
2018-Jun-23 07:30N 35°22' E 139°39'0 0.0
2018-Jun-23 06:57N 35°22' E 139°39'0 0.0
2018-Jun-23 06:30N 35°22' E 139°39'0 0.0
2018-Jun-23 05:57N 35°22' E 139°39'0 0.0
2018-Jun-23 05:31N 35°22' E 139°39'0 0.0
2018-Jun-23 05:01N 35°22' E 139°39'0 0.0
2018-Jun-23 04:30N 35°22' E 139°39'0 0.0
2018-Jun-23 04:01N 35°22' E 139°39'0 0.0
2018-Jun-23 03:28N 35°22' E 139°39'0 0.0
2018-Jun-23 03:01N 35°22' E 139°39'0 0.0
2018-Jun-23 02:27N 35°22' E 139°39'0 0.0
2018-Jun-23 01:58N 35°22' E 139°39'0 0.0
2018-Jun-23 01:28N 35°22' E 139°39'0 0.0
2018-Jun-23 00:57N 35°22' E 139°39'0 0.0
2018-Jun-23 00:30N 35°22' E 139°39'0 0.0
2018-Jun-23 00:00N 35°22' E 139°39'0 0.0
2018-Jun-22 23:30N 35°22' E 139°39'0 0.0
2018-Jun-22 23:01N 35°22' E 139°39'0 0.3
2018-Jun-22 22:30N 35°23' E 139°39'1 1.4
2018-Jun-22 22:00N 35°23' E 139°40'3 5.9
2018-Jun-22 21:31N 35°24' E 139°43'612.1
2018-Jun-22 21:01N 35°28' E 139°49'712.8
2018-Jun-22 20:29N 35°33' E 139°55'612.7
2018-Jun-22 19:59N 35°38' E 139°59'3 0.1
2018-Jun-21 00:05N 35°35' E 139°57'0 0.0
2018-Jun-20 22:46N 35°35' E 139°57'0 0.0
2018-Jun-20 16:25N 35°35' E 139°57'0 0.0
2018-Jun-20 15:55N 35°35' E 139°57'0 0.0
2018-Jun-20 15:28N 35°35' E 139°57'0 0.0
2018-Jun-20 14:58N 35°35' E 139°57'0 0.0
2018-Jun-20 14:25N 35°35' E 139°57'0 0.0
2018-Jun-20 13:49N 35°35' E 139°57'7 0.8
2018-Jun-20 05:52N 35°30' E 139°53'512.2
2018-Jun-20 05:30N 35°27' E 139°48'612.2
2018-Jun-20 05:00N 35°27' E 139°41'2 3.4
2018-Jun-20 04:31N 35°28' E 139°39'0 0.0
2018-Jun-20 04:00N 35°28' E 139°39'0 0.0
2018-Jun-20 03:30N 35°28' E 139°39'0 0.0
2018-Jun-20 02:59N 35°28' E 139°39'0 0.0
2018-Jun-20 02:30N 35°28' E 139°39'0 0.0
2018-Jun-20 02:00N 35°28' E 139°39'0 0.0
2018-Jun-20 01:30N 35°28' E 139°39'0 0.0
2018-Jun-20 01:00N 35°28' E 139°39'0 0.4
2018-Jun-20 00:30N 35°28' E 139°40'4 8.2
2018-Jun-20 00:01N 35°25' E 139°42'611.4
2018-Jun-19 23:30N 35°19' E 139°43'611.7
2018-Jun-19 23:00N 35°14' E 139°47'611.7
2018-Jun-19 22:30N 35°08' E 139°45'  
2018-Jun-16 02:10N 35°08' E 139°42'214.3
2018-Jun-16 02:00N 35°10' E 139°44'713.1
2018-Jun-16 01:30N 35°16' E 139°46'612.6
2018-Jun-16 01:00N 35°22' E 139°42'510.2
2018-Jun-16 00:30N 35°25' E 139°48'510.5
2018-Jun-16 00:00N 35°22' E 139°53'0 0.0
2018-Jun-15 23:30N 35°22' E 139°53'0 0.0
2018-Jun-15 23:00N 35°22' E 139°53'0 0.0
2018-Jun-15 22:30N 35°22' E 139°53'0 0.0
2018-Jun-15 21:45N 35°22' E 139°53'0 0.0
2018-Jun-15 21:12N 35°22' E 139°53'0 0.5
2018-Jun-15 20:54N 35°22' E 139°53'4 8.6
2018-Jun-15 20:28N 35°23' E 139°49'510.2
2018-Jun-15 20:00N 35°20' E 139°44'4 8.4
2018-Jun-15 19:31N 35°17' E 139°41'0 0.0
2018-Jun-15 18:57N 35°17' E 139°41'0 0.0
2018-Jun-15 18:30N 35°17' E 139°41'0 0.0
2018-Jun-15 18:00N 35°17' E 139°41'0 0.0
2018-Jun-15 17:30N 35°17' E 139°41'0 0.0
2018-Jun-15 17:00N 35°17' E 139°41'0 0.0
2018-Jun-15 16:30N 35°17' E 139°41'0 0.0
2018-Jun-15 16:00N 35°17' E 139°41'0 0.0
2018-Jun-15 15:30N 35°17' E 139°41'0 0.0
2018-Jun-15 15:00N 35°17' E 139°41'0 0.0
2018-Jun-15 14:30N 35°17' E 139°41'0 0.0
2018-Jun-15 14:00N 35°17' E 139°41'0 0.0
2018-Jun-15 13:30N 35°17' E 139°41'0 0.0
2018-Jun-15 13:00N 35°17' E 139°41'0 0.0
2018-Jun-15 12:30N 35°17' E 139°41'0 0.0
2018-Jun-15 11:57N 35°17' E 139°41'0 0.0
2018-Jun-15 11:30N 35°17' E 139°41'0 0.0
2018-Jun-15 10:57N 35°17' E 139°41'0 0.0
2018-Jun-15 10:30N 35°17' E 139°41'0 0.0
2018-Jun-15 10:00N 35°17' E 139°41'0 0.0
2018-Jun-15 09:27N 35°17' E 139°41'0 0.0
2018-Jun-15 09:00N 35°17' E 139°41'0 0.0
2018-Jun-15 08:27N 35°17' E 139°41'0 0.0
2018-Jun-15 07:57N 35°17' E 139°41'0 0.0
2018-Jun-15 07:27N 35°17' E 139°41'0 0.0
2018-Jun-15 07:00N 35°17' E 139°41'0 0.0
2018-Jun-15 06:24N 35°17' E 139°41'0 0.0
2018-Jun-15 05:57N 35°17' E 139°41'0 0.0
2018-Jun-15 05:30N 35°17' E 139°41'0 0.0
2018-Jun-15 04:57N 35°17' E 139°41'0 0.0
2018-Jun-15 04:27N 35°17' E 139°41'0 0.0
2018-Jun-15 04:00N 35°17' E 139°41'0 0.0
2018-Jun-15 03:27N 35°17' E 139°41'0 0.0
2018-Jun-15 02:54N 35°17' E 139°41'0 0.0
2018-Jun-15 02:30N 35°17' E 139°41'0 0.0
2018-Jun-15 01:54N 35°17' E 139°41'1 2.9
2018-Jun-15 01:31N 35°18' E 139°42'5 9.2
2018-Jun-15 01:00N 35°15' E 139°47'5 9.7
2018-Jun-15 00:30N 35°10' E 139°46'  
Track history (hours):
 
Tides and Currents Weather Stations Pressure Air Temp Water Temp Dewpoint Dewpoint Depression Visibility Wind Speed Wind Dir Waves Ship Positions

Hosei Maru No.226

Last reported at 2018-Jun-23 08:59 UTC. Time now 2018-Jun-24 01:35 UTC.
Position N 35°09' E 139°44'.

Length 78 m; draft 4.5 m.

Type: Cargo ship. MMSI: 431203000.

Date/timePositionNaut miles runAvg speedWind from/ knotsBaromVisibWave heightAir tempDewpointWater temp
2018-Jun-23 08:59N 35°09' E 139°44'612.2
2018-Jun-23 08:29N 35°15' E 139°46'612.9
2018-Jun-23 08:00N 35°20' E 139°42'3 6.4
2018-Jun-23 07:30N 35°22' E 139°39'0 0.0
2018-Jun-23 06:57N 35°22' E 139°39'0 0.0
2018-Jun-23 06:30N 35°22' E 139°39'0 0.0
2018-Jun-23 05:57N 35°22' E 139°39'0 0.0
2018-Jun-23 05:31N 35°22' E 139°39'0 0.0
2018-Jun-23 05:01N 35°22' E 139°39'0 0.0
2018-Jun-23 04:30N 35°22' E 139°39'0 0.0
2018-Jun-23 04:01N 35°22' E 139°39'0 0.0
2018-Jun-23 03:28N 35°22' E 139°39'0 0.0
2018-Jun-23 03:01N 35°22' E 139°39'0 0.0
2018-Jun-23 02:27N 35°22' E 139°39'0 0.0
2018-Jun-23 01:58N 35°22' E 139°39'0 0.0
2018-Jun-23 01:28N 35°22' E 139°39'0 0.0
2018-Jun-23 00:57N 35°22' E 139°39'0 0.0
2018-Jun-23 00:30N 35°22' E 139°39'0 0.0
2018-Jun-23 00:00N 35°22' E 139°39'0 0.0
2018-Jun-22 23:30N 35°22' E 139°39'0 0.0
2018-Jun-22 23:01N 35°22' E 139°39'0 0.3
2018-Jun-22 22:30N 35°23' E 139°39'1 1.4
2018-Jun-22 22:00N 35°23' E 139°40'3 5.9
2018-Jun-22 21:31N 35°24' E 139°43'612.1
2018-Jun-22 21:01N 35°28' E 139°49'712.8
2018-Jun-22 20:29N 35°33' E 139°55'612.7
2018-Jun-22 19:59N 35°38' E 139°59'3 0.1
2018-Jun-21 00:05N 35°35' E 139°57'0 0.0
2018-Jun-20 22:46N 35°35' E 139°57'0 0.0
2018-Jun-20 16:25N 35°35' E 139°57'0 0.0
2018-Jun-20 15:55N 35°35' E 139°57'0 0.0
2018-Jun-20 15:28N 35°35' E 139°57'0 0.0
2018-Jun-20 14:58N 35°35' E 139°57'0 0.0
2018-Jun-20 14:25N 35°35' E 139°57'0 0.0
2018-Jun-20 13:49N 35°35' E 139°57'7 0.8
2018-Jun-20 05:52N 35°30' E 139°53'512.2
2018-Jun-20 05:30N 35°27' E 139°48'612.2
2018-Jun-20 05:00N 35°27' E 139°41'2 3.4
2018-Jun-20 04:31N 35°28' E 139°39'0 0.0
2018-Jun-20 04:00N 35°28' E 139°39'0 0.0
2018-Jun-20 03:30N 35°28' E 139°39'0 0.0
2018-Jun-20 02:59N 35°28' E 139°39'0 0.0
2018-Jun-20 02:30N 35°28' E 139°39'0 0.0
2018-Jun-20 02:00N 35°28' E 139°39'0 0.0
2018-Jun-20 01:30N 35°28' E 139°39'0 0.0
2018-Jun-20 01:00N 35°28' E 139°39'0 0.4
2018-Jun-20 00:30N 35°28' E 139°40'4 8.2
2018-Jun-20 00:01N 35°25' E 139°42'611.4
2018-Jun-19 23:30N 35°19' E 139°43'611.7
2018-Jun-19 23:00N 35°14' E 139°47'611.7
2018-Jun-19 22:30N 35°08' E 139°45'  
2018-Jun-16 02:10N 35°08' E 139°42'214.3
2018-Jun-16 02:00N 35°10' E 139°44'713.1
2018-Jun-16 01:30N 35°16' E 139°46'612.6
2018-Jun-16 01:00N 35°22' E 139°42'510.2
2018-Jun-16 00:30N 35°25' E 139°48'510.5
2018-Jun-16 00:00N 35°22' E 139°53'0 0.0
2018-Jun-15 23:30N 35°22' E 139°53'0 0.0
2018-Jun-15 23:00N 35°22' E 139°53'0 0.0
2018-Jun-15 22:30N 35°22' E 139°53'0 0.0
2018-Jun-15 21:45N 35°22' E 139°53'0 0.0
2018-Jun-15 21:12N 35°22' E 139°53'0 0.5
2018-Jun-15 20:54N 35°22' E 139°53'4 8.6
2018-Jun-15 20:28N 35°23' E 139°49'510.2
2018-Jun-15 20:00N 35°20' E 139°44'4 8.4
2018-Jun-15 19:31N 35°17' E 139°41'0 0.0
2018-Jun-15 18:57N 35°17' E 139°41'0 0.0
2018-Jun-15 18:30N 35°17' E 139°41'0 0.0
2018-Jun-15 18:00N 35°17' E 139°41'0 0.0
2018-Jun-15 17:30N 35°17' E 139°41'0 0.0
2018-Jun-15 17:00N 35°17' E 139°41'0 0.0
2018-Jun-15 16:30N 35°17' E 139°41'0 0.0
2018-Jun-15 16:00N 35°17' E 139°41'0 0.0
2018-Jun-15 15:30N 35°17' E 139°41'0 0.0
2018-Jun-15 15:00N 35°17' E 139°41'0 0.0
2018-Jun-15 14:30N 35°17' E 139°41'0 0.0
2018-Jun-15 14:00N 35°17' E 139°41'0 0.0
2018-Jun-15 13:30N 35°17' E 139°41'0 0.0
2018-Jun-15 13:00N 35°17' E 139°41'0 0.0
2018-Jun-15 12:30N 35°17' E 139°41'0 0.0
2018-Jun-15 11:57N 35°17' E 139°41'0 0.0
2018-Jun-15 11:30N 35°17' E 139°41'0 0.0
2018-Jun-15 10:57N 35°17' E 139°41'0 0.0
2018-Jun-15 10:30N 35°17' E 139°41'0 0.0
2018-Jun-15 10:00N 35°17' E 139°41'0 0.0
2018-Jun-15 09:27N 35°17' E 139°41'0 0.0
2018-Jun-15 09:00N 35°17' E 139°41'0 0.0
2018-Jun-15 08:27N 35°17' E 139°41'0 0.0
2018-Jun-15 07:57N 35°17' E 139°41'0 0.0
2018-Jun-15 07:27N 35°17' E 139°41'0 0.0
2018-Jun-15 07:00N 35°17' E 139°41'0 0.0
2018-Jun-15 06:24N 35°17' E 139°41'0 0.0
2018-Jun-15 05:57N 35°17' E 139°41'0 0.0
2018-Jun-15 05:30N 35°17' E 139°41'0 0.0
2018-Jun-15 04:57N 35°17' E 139°41'0 0.0
2018-Jun-15 04:27N 35°17' E 139°41'0 0.0
2018-Jun-15 04:00N 35°17' E 139°41'0 0.0
2018-Jun-15 03:27N 35°17' E 139°41'0 0.0
2018-Jun-15 02:54N 35°17' E 139°41'0 0.0
2018-Jun-15 02:30N 35°17' E 139°41'0 0.0
2018-Jun-15 01:54N 35°17' E 139°41'1 2.9
2018-Jun-15 01:31N 35°18' E 139°42'5 9.2
2018-Jun-15 01:00N 35°15' E 139°47'5 9.7
2018-Jun-15 00:30N 35°10' E 139°46'  

Dump ship's entire track history